sensor_id;sensor_type;location;lat;lon;timestamp;temperature;humidity
71563;DHT22;59391;52.504;13.438;2022-08-19T00:01:51;24.60;65.60
71563;DHT22;59391;52.504;13.438;2022-08-19T00:04:26;24.60;65.50
71563;DHT22;59391;52.504;13.438;2022-08-19T00:06:54;24.60;65.70
71563;DHT22;59391;52.504;13.438;2022-08-19T00:09:22;24.60;65.50
71563;DHT22;59391;52.504;13.438;2022-08-19T00:11:49;24.60;65.30
71563;DHT22;59391;52.504;13.438;2022-08-19T00:14:16;24.70;65.40
71563;DHT22;59391;52.504;13.438;2022-08-19T00:16:45;24.60;65.50
71563;DHT22;59391;52.504;13.438;2022-08-19T00:19:12;24.70;65.40
71563;DHT22;59391;52.504;13.438;2022-08-19T00:21:38;24.70;65.40
71563;DHT22;59391;52.504;13.438;2022-08-19T00:24:09;24.70;65.40
71563;DHT22;59391;52.504;13.438;2022-08-19T00:26:37;24.70;65.50
71563;DHT22;59391;52.504;13.438;2022-08-19T00:29:05;24.70;65.60
71563;DHT22;59391;52.504;13.438;2022-08-19T00:31:33;24.70;65.50
71563;DHT22;59391;52.504;13.438;2022-08-19T00:33:59;24.70;65.50
71563;DHT22;59391;52.504;13.438;2022-08-19T00:36:24;24.70;65.60
71563;DHT22;59391;52.504;13.438;2022-08-19T00:38:50;24.70;65.50
71563;DHT22;59391;52.504;13.438;2022-08-19T00:41:20;24.70;65.60
71563;DHT22;59391;52.504;13.438;2022-08-19T00:44:03;24.70;65.90
71563;DHT22;59391;52.504;13.438;2022-08-19T00:46:37;24.70;66.30
71563;DHT22;59391;52.504;13.438;2022-08-19T00:49:18;24.70;67.10
71563;DHT22;59391;52.504;13.438;2022-08-19T00:51:53;24.60;68.30
71563;DHT22;59391;52.504;13.438;2022-08-19T00:54:22;24.60;68.20
71563;DHT22;59391;52.504;13.438;2022-08-19T00:56:48;24.50;68.50
71563;DHT22;59391;52.504;13.438;2022-08-19T00:59:16;24.40;69.20
71563;DHT22;59391;52.504;13.438;2022-08-19T01:01:43;24.30;69.10
71563;DHT22;59391;52.504;13.438;2022-08-19T01:04:11;24.20;69.60
71563;DHT22;59391;52.504;13.438;2022-08-19T01:06:38;24.10;70.10
71563;DHT22;59391;52.504;13.438;2022-08-19T01:09:07;24.00;70.40
71563;DHT22;59391;52.504;13.438;2022-08-19T01:11:38;24.00;70.00
71563;DHT22;59391;52.504;13.438;2022-08-19T01:14:10;23.90;70.80
71563;DHT22;59391;52.504;13.438;2022-08-19T01:16:37;23.80;71.00
71563;DHT22;59391;52.504;13.438;2022-08-19T01:19:18;23.80;71.30
71563;DHT22;59391;52.504;13.438;2022-08-19T01:21:58;23.70;71.80
71563;DHT22;59391;52.504;13.438;2022-08-19T01:24:28;23.70;71.90
71563;DHT22;59391;52.504;13.438;2022-08-19T01:26:56;23.60;72.40
71563;DHT22;59391;52.504;13.438;2022-08-19T01:29:22;23.60;72.10
71563;DHT22;59391;52.504;13.438;2022-08-19T01:31:48;23.60;72.40
71563;DHT22;59391;52.504;13.438;2022-08-19T01:34:18;23.60;72.60
71563;DHT22;59391;52.504;13.438;2022-08-19T01:36:46;23.50;72.40
71563;DHT22;59391;52.504;13.438;2022-08-19T01:39:18;23.50;73.40
71563;DHT22;59391;52.504;13.438;2022-08-19T01:41:47;23.50;73.40
71563;DHT22;59391;52.504;13.438;2022-08-19T01:44:14;23.50;73.40
71563;DHT22;59391;52.504;13.438;2022-08-19T01:46:42;23.40;73.10
71563;DHT22;59391;52.504;13.438;2022-08-19T01:49:09;23.40;73.50
71563;DHT22;59391;52.504;13.438;2022-08-19T01:51:36;23.40;73.70
71563;DHT22;59391;52.504;13.438;2022-08-19T01:54:02;23.30;73.10
71563;DHT22;59391;52.504;13.438;2022-08-19T01:56:28;23.30;74.10
71563;DHT22;59391;52.504;13.438;2022-08-19T01:59:00;23.20;74.50
71563;DHT22;59391;52.504;13.438;2022-08-19T02:01:28;23.20;75.40
71563;DHT22;59391;52.504;13.438;2022-08-19T02:03:57;23.10;75.40
71563;DHT22;59391;52.504;13.438;2022-08-19T02:06:24;23.10;75.50
71563;DHT22;59391;52.504;13.438;2022-08-19T02:08:50;23.00;75.80
71563;DHT22;59391;52.504;13.438;2022-08-19T02:11:27;22.90;76.20
71563;DHT22;59391;52.504;13.438;2022-08-19T02:13:57;22.80;77.10
71563;DHT22;59391;52.504;13.438;2022-08-19T02:16:24;22.80;76.60
71563;DHT22;59391;52.504;13.438;2022-08-19T02:18:50;22.70;77.30
71563;DHT22;59391;52.504;13.438;2022-08-19T02:21:17;22.60;77.80
71563;DHT22;59391;52.504;13.438;2022-08-19T02:23:45;22.50;78.60
71563;DHT22;59391;52.504;13.438;2022-08-19T02:26:12;22.40;78.40
71563;DHT22;59391;52.504;13.438;2022-08-19T02:28:39;22.40;78.40
71563;DHT22;59391;52.504;13.438;2022-08-19T02:31:15;22.30;79.10
71563;DHT22;59391;52.504;13.438;2022-08-19T02:33:43;22.30;79.10
71563;DHT22;59391;52.504;13.438;2022-08-19T02:36:11;22.30;79.70
71563;DHT22;59391;52.504;13.438;2022-08-19T02:38:38;22.20;79.80
71563;DHT22;59391;52.504;13.438;2022-08-19T02:41:29;22.20;80.00
71563;DHT22;59391;52.504;13.438;2022-08-19T02:43:56;22.20;79.30
71563;DHT22;59391;52.504;13.438;2022-08-19T02:46:28;22.20;80.20
71563;DHT22;59391;52.504;13.438;2022-08-19T02:49:02;22.20;80.40
71563;DHT22;59391;52.504;13.438;2022-08-19T02:51:36;22.20;80.70
71563;DHT22;59391;52.504;13.438;2022-08-19T02:54:05;22.20;80.90
71563;DHT22;59391;52.504;13.438;2022-08-19T02:56:35;22.30;81.00
71563;DHT22;59391;52.504;13.438;2022-08-19T02:59:01;22.30;80.60
71563;DHT22;59391;52.504;13.438;2022-08-19T03:01:32;22.30;80.30
71563;DHT22;59391;52.504;13.438;2022-08-19T03:04:00;22.30;80.30
71563;DHT22;59391;52.504;13.438;2022-08-19T03:06:29;22.30;80.50
71563;DHT22;59391;52.504;13.438;2022-08-19T03:08:57;22.30;80.20
71563;DHT22;59391;52.504;13.438;2022-08-19T03:11:29;22.30;79.90
71563;DHT22;59391;52.504;13.438;2022-08-19T03:13:57;22.30;80.20
71563;DHT22;59391;52.504;13.438;2022-08-19T03:16:27;22.30;80.40
71563;DHT22;59391;52.504;13.438;2022-08-19T03:18:56;22.30;79.80
71563;DHT22;59391;52.504;13.438;2022-08-19T03:21:26;22.30;79.40
71563;DHT22;59391;52.504;13.438;2022-08-19T03:23:55;22.30;79.60
71563;DHT22;59391;52.504;13.438;2022-08-19T03:26:22;22.30;79.50
71563;DHT22;59391;52.504;13.438;2022-08-19T03:28:48;22.30;79.70
71563;DHT22;59391;52.504;13.438;2022-08-19T03:31:17;22.30;79.50
71563;DHT22;59391;52.504;13.438;2022-08-19T03:33:46;22.30;78.70
71563;DHT22;59391;52.504;13.438;2022-08-19T03:36:21;22.40;79.20
71563;DHT22;59391;52.504;13.438;2022-08-19T03:38:52;22.30;80.10
71563;DHT22;59391;52.504;13.438;2022-08-19T03:41:26;22.30;79.30
71563;DHT22;59391;52.504;13.438;2022-08-19T03:43:54;22.30;79.30
71563;DHT22;59391;52.504;13.438;2022-08-19T03:46:22;22.30;78.80
71563;DHT22;59391;52.504;13.438;2022-08-19T03:48:52;22.30;79.30
71563;DHT22;59391;52.504;13.438;2022-08-19T03:53:57;22.30;79.30
71563;DHT22;59391;52.504;13.438;2022-08-19T03:56:26;22.40;79.60
71563;DHT22;59391;52.504;13.438;2022-08-19T03:58:54;22.30;78.60
71563;DHT22;59391;52.504;13.438;2022-08-19T04:01:23;22.40;78.90
71563;DHT22;59391;52.504;13.438;2022-08-19T04:03:56;22.40;78.70
71563;DHT22;59391;52.504;13.438;2022-08-19T04:06:45;22.40;79.00
71563;DHT22;59391;52.504;13.438;2022-08-19T04:09:28;22.40;79.30
71563;DHT22;59391;52.504;13.438;2022-08-19T04:12:00;22.40;78.20
71563;DHT22;59391;52.504;13.438;2022-08-19T04:14:28;22.50;77.90
71563;DHT22;59391;52.504;13.438;2022-08-19T04:17:02;22.40;78.40
71563;DHT22;59391;52.504;13.438;2022-08-19T04:19:30;22.50;78.50
71563;DHT22;59391;52.504;13.438;2022-08-19T04:21:57;22.50;78.30
71563;DHT22;59391;52.504;13.438;2022-08-19T04:24:29;22.50;78.60
71563;DHT22;59391;52.504;13.438;2022-08-19T04:27:01;22.50;78.60
71563;DHT22;59391;52.504;13.438;2022-08-19T04:29:28;22.50;78.60
71563;DHT22;59391;52.504;13.438;2022-08-19T04:31:56;22.60;78.20
71563;DHT22;59391;52.504;13.438;2022-08-19T04:34:27;22.60;78.70
71563;DHT22;59391;52.504;13.438;2022-08-19T04:37:00;22.60;79.10
71563;DHT22;59391;52.504;13.438;2022-08-19T04:39:56;22.60;78.40
71563;DHT22;59391;52.504;13.438;2022-08-19T04:42:41;22.70;78.80
71563;DHT22;59391;52.504;13.438;2022-08-19T04:45:17;22.70;77.80
71563;DHT22;59391;52.504;13.438;2022-08-19T04:48:03;22.70;78.30
71563;DHT22;59391;52.504;13.438;2022-08-19T04:50:39;22.70;77.90
71563;DHT22;59391;52.504;13.438;2022-08-19T04:53:51;22.70;78.60
71563;DHT22;59391;52.504;13.438;2022-08-19T05:18:57;22.90;76.80
71563;DHT22;59391;52.504;13.438;2022-08-19T05:22:09;22.90;77.40
71563;DHT22;59391;52.504;13.438;2022-08-19T05:24:54;22.90;77.10
71563;DHT22;59391;52.504;13.438;2022-08-19T05:27:20;22.90;75.80
71563;DHT22;59391;52.504;13.438;2022-08-19T05:29:45;22.90;77.00
71563;DHT22;59391;52.504;13.438;2022-08-19T05:32:14;22.90;76.20
71563;DHT22;59391;52.504;13.438;2022-08-19T05:34:40;23.00;77.30
71563;DHT22;59391;52.504;13.438;2022-08-19T05:37:33;23.00;77.50
71563;DHT22;59391;52.504;13.438;2022-08-19T05:40:12;23.00;77.50
71563;DHT22;59391;52.504;13.438;2022-08-19T05:42:38;23.10;75.20
71563;DHT22;59391;52.504;13.438;2022-08-19T05:45:20;23.10;77.60
71563;DHT22;59391;52.504;13.438;2022-08-19T05:47:47;23.10;76.40
71563;DHT22;59391;52.504;13.438;2022-08-19T05:50:13;23.20;76.40
71563;DHT22;59391;52.504;13.438;2022-08-19T05:52:42;23.20;76.90
71563;DHT22;59391;52.504;13.438;2022-08-19T05:55:18;23.30;76.70
71563;DHT22;59391;52.504;13.438;2022-08-19T05:57:46;23.30;76.40
71563;DHT22;59391;52.504;13.438;2022-08-19T06:00:18;23.40;76.20
71563;DHT22;59391;52.504;13.438;2022-08-19T06:02:44;23.40;76.70
71563;DHT22;59391;52.504;13.438;2022-08-19T06:05:16;23.40;76.00
71563;DHT22;59391;52.504;13.438;2022-08-19T06:07:47;23.50;76.30
71563;DHT22;59391;52.504;13.438;2022-08-19T06:10:13;23.50;76.40
71563;DHT22;59391;52.504;13.438;2022-08-19T06:12:41;23.50;76.50
71563;DHT22;59391;52.504;13.438;2022-08-19T06:15:11;23.60;76.40
71563;DHT22;59391;52.504;13.438;2022-08-19T06:17:38;23.60;76.10
71563;DHT22;59391;52.504;13.438;2022-08-19T06:20:12;23.60;75.90
71563;DHT22;59391;52.504;13.438;2022-08-19T06:22:58;23.70;76.10
71563;DHT22;59391;52.504;13.438;2022-08-19T06:25:27;23.70;74.70
71563;DHT22;59391;52.504;13.438;2022-08-19T06:27:53;23.70;75.10
71563;DHT22;59391;52.504;13.438;2022-08-19T06:30:19;23.80;75.70
71563;DHT22;59391;52.504;13.438;2022-08-19T06:32:46;23.80;75.40
71563;DHT22;59391;52.504;13.438;2022-08-19T06:35:12;23.90;75.00
71563;DHT22;59391;52.504;13.438;2022-08-19T06:37:43;23.90;76.30
71563;DHT22;59391;52.504;13.438;2022-08-19T06:40:09;24.00;75.90
71563;DHT22;59391;52.504;13.438;2022-08-19T06:42:36;24.00;73.90
71563;DHT22;59391;52.504;13.438;2022-08-19T06:45:05;24.10;76.20
71563;DHT22;59391;52.504;13.438;2022-08-19T06:47:33;24.10;74.40
71563;DHT22;59391;52.504;13.438;2022-08-19T06:50:00;24.20;74.20
71563;DHT22;59391;52.504;13.438;2022-08-19T06:52:29;24.20;74.80
71563;DHT22;59391;52.504;13.438;2022-08-19T06:55:02;24.30;74.20
71563;DHT22;59391;52.504;13.438;2022-08-19T06:57:28;24.30;75.50
71563;DHT22;59391;52.504;13.438;2022-08-19T07:00:00;24.30;75.20
71563;DHT22;59391;52.504;13.438;2022-08-19T07:02:26;24.40;74.80
71563;DHT22;59391;52.504;13.438;2022-08-19T07:04:52;24.40;74.50
71563;DHT22;59391;52.504;13.438;2022-08-19T07:07:19;24.40;74.60
71563;DHT22;59391;52.504;13.438;2022-08-19T07:09:46;24.40;74.90
71563;DHT22;59391;52.504;13.438;2022-08-19T07:12:13;24.50;74.40
71563;DHT22;59391;52.504;13.438;2022-08-19T07:14:42;24.50;74.00
71563;DHT22;59391;52.504;13.438;2022-08-19T07:17:11;24.60;74.30
71563;DHT22;59391;52.504;13.438;2022-08-19T07:19:38;24.60;74.60
71563;DHT22;59391;52.504;13.438;2022-08-19T07:22:07;24.60;75.40
71563;DHT22;59391;52.504;13.438;2022-08-19T07:24:34;24.70;75.40
71563;DHT22;59391;52.504;13.438;2022-08-19T07:27:03;24.70;73.80
71563;DHT22;59391;52.504;13.438;2022-08-19T07:29:32;24.80;74.60
71563;DHT22;59391;52.504;13.438;2022-08-19T07:32:00;24.80;74.60
71563;DHT22;59391;52.504;13.438;2022-08-19T07:34:28;24.80;73.70
71563;DHT22;59391;52.504;13.438;2022-08-19T07:36:55;24.90;73.80
71563;DHT22;59391;52.504;13.438;2022-08-19T07:39:30;24.90;73.20
71563;DHT22;59391;52.504;13.438;2022-08-19T07:42:00;25.00;73.50
71563;DHT22;59391;52.504;13.438;2022-08-19T07:44:28;25.00;72.70
71563;DHT22;59391;52.504;13.438;2022-08-19T07:46:55;25.00;73.30
71563;DHT22;59391;52.504;13.438;2022-08-19T07:49:23;25.10;72.70
71563;DHT22;59391;52.504;13.438;2022-08-19T07:51:52;25.10;72.60
71563;DHT22;59391;52.504;13.438;2022-08-19T07:54:22;25.00;72.80
71563;DHT22;59391;52.504;13.438;2022-08-19T07:56:50;25.10;72.70
71563;DHT22;59391;52.504;13.438;2022-08-19T07:59:17;25.10;72.60
71563;DHT22;59391;52.504;13.438;2022-08-19T08:01:45;25.20;73.40
71563;DHT22;59391;52.504;13.438;2022-08-19T08:04:11;25.20;72.90
71563;DHT22;59391;52.504;13.438;2022-08-19T08:06:55;25.20;73.10
71563;DHT22;59391;52.504;13.438;2022-08-19T08:09:41;25.20;73.10
71563;DHT22;59391;52.504;13.438;2022-08-19T08:12:12;25.20;72.70
71563;DHT22;59391;52.504;13.438;2022-08-19T08:14:47;25.20;72.30
71563;DHT22;59391;52.504;13.438;2022-08-19T08:17:26;25.20;73.00
71563;DHT22;59391;52.504;13.438;2022-08-19T08:19:54;25.20;73.10
71563;DHT22;59391;52.504;13.438;2022-08-19T08:22:23;25.30;72.20
71563;DHT22;59391;52.504;13.438;2022-08-19T08:25:15;25.20;71.90
71563;DHT22;59391;52.504;13.438;2022-08-19T08:27:45;25.20;73.00
71563;DHT22;59391;52.504;13.438;2022-08-19T08:30:20;25.20;72.50
71563;DHT22;59391;52.504;13.438;2022-08-19T08:32:47;25.30;71.60
71563;DHT22;59391;52.504;13.438;2022-08-19T08:35:15;25.20;71.40
71563;DHT22;59391;52.504;13.438;2022-08-19T08:37:44;25.20;72.30
71563;DHT22;59391;52.504;13.438;2022-08-19T08:43:04;25.30;71.90
71563;DHT22;59391;52.504;13.438;2022-08-19T08:45:33;25.40;72.70
71563;DHT22;59391;52.504;13.438;2022-08-19T08:48:07;25.50;74.10
71563;DHT22;59391;52.504;13.438;2022-08-19T08:50:43;25.60;72.40
71563;DHT22;59391;52.504;13.438;2022-08-19T08:53:13;25.70;74.00
71563;DHT22;59391;52.504;13.438;2022-08-19T08:55:42;25.80;74.00
71563;DHT22;59391;52.504;13.438;2022-08-19T08:58:24;25.90;74.20
71563;DHT22;59391;52.504;13.438;2022-08-19T09:00:56;25.90;69.80
71563;DHT22;59391;52.504;13.438;2022-08-19T09:03:27;26.00;71.70
71563;DHT22;59391;52.504;13.438;2022-08-19T09:06:10;26.10;71.20
71563;DHT22;59391;52.504;13.438;2022-08-19T09:09:11;26.10;71.60
71563;DHT22;59391;52.504;13.438;2022-08-19T09:15:06;26.20;70.20
71563;DHT22;59391;52.504;13.438;2022-08-19T09:17:36;26.20;68.90
71563;DHT22;59391;52.504;13.438;2022-08-19T09:20:14;26.20;70.20
71563;DHT22;59391;52.504;13.438;2022-08-19T09:22:47;26.20;70.40
71563;DHT22;59391;52.504;13.438;2022-08-19T09:25:16;26.20;70.40
71563;DHT22;59391;52.504;13.438;2022-08-19T09:27:45;26.20;70.90
71563;DHT22;59391;52.504;13.438;2022-08-19T09:30:18;26.30;70.80
71563;DHT22;59391;52.504;13.438;2022-08-19T09:32:47;26.30;70.10
71563;DHT22;59391;52.504;13.438;2022-08-19T09:35:14;26.40;70.80
71563;DHT22;59391;52.504;13.438;2022-08-19T09:37:41;26.50;70.10
71563;DHT22;59391;52.504;13.438;2022-08-19T09:40:09;26.60;70.10
71563;DHT22;59391;52.504;13.438;2022-08-19T09:42:36;26.70;69.50
71563;DHT22;59391;52.504;13.438;2022-08-19T09:45:03;26.80;67.20
71563;DHT22;59391;52.504;13.438;2022-08-19T09:47:30;26.80;69.00
71563;DHT22;59391;52.504;13.438;2022-08-19T09:49:55;26.90;67.00
71563;DHT22;59391;52.504;13.438;2022-08-19T09:52:21;26.90;68.80
71563;DHT22;59391;52.504;13.438;2022-08-19T09:54:47;27.00;68.10
71563;DHT22;59391;52.504;13.438;2022-08-19T09:57:12;27.00;68.50
71563;DHT22;59391;52.504;13.438;2022-08-19T09:59:39;27.10;68.00
71563;DHT22;59391;52.504;13.438;2022-08-19T10:02:05;27.10;66.80
71563;DHT22;59391;52.504;13.438;2022-08-19T10:04:31;27.10;67.60
71563;DHT22;59391;52.504;13.438;2022-08-19T10:07:15;27.10;66.90
71563;DHT22;59391;52.504;13.438;2022-08-19T10:09:41;27.10;68.40
71563;DHT22;59391;52.504;13.438;2022-08-19T10:12:07;27.10;68.10
71563;DHT22;59391;52.504;13.438;2022-08-19T10:14:34;27.10;71.50
71563;DHT22;59391;52.504;13.438;2022-08-19T10:17:00;27.10;68.50
71563;DHT22;59391;52.504;13.438;2022-08-19T10:19:28;27.10;67.90
71563;DHT22;59391;52.504;13.438;2022-08-19T10:21:57;27.00;67.20
71563;DHT22;59391;52.504;13.438;2022-08-19T10:24:23;27.00;66.50
71563;DHT22;59391;52.504;13.438;2022-08-19T10:26:51;27.00;68.40
71563;DHT22;59391;52.504;13.438;2022-08-19T10:29:17;26.90;65.20
71563;DHT22;59391;52.504;13.438;2022-08-19T10:31:42;26.90;66.40
71563;DHT22;59391;52.504;13.438;2022-08-19T10:34:08;26.80;67.00
71563;DHT22;59391;52.504;13.438;2022-08-19T10:36:36;26.80;67.80
71563;DHT22;59391;52.504;13.438;2022-08-19T10:39:07;26.70;64.30
71563;DHT22;59391;52.504;13.438;2022-08-19T10:41:37;26.60;65.90
71563;DHT22;59391;52.504;13.438;2022-08-19T10:44:07;26.50;66.40
71563;DHT22;59391;52.504;13.438;2022-08-19T10:46:37;26.50;67.80
71563;DHT22;59391;52.504;13.438;2022-08-19T10:49:07;26.40;68.80
71563;DHT22;59391;52.504;13.438;2022-08-19T10:51:34;26.40;65.10
71563;DHT22;59391;52.504;13.438;2022-08-19T10:54:18;26.30;69.70
71563;DHT22;59391;52.504;13.438;2022-08-19T10:56:44;26.30;68.00
71563;DHT22;59391;52.504;13.438;2022-08-19T10:59:27;26.30;67.90
71563;DHT22;59391;52.504;13.438;2022-08-19T11:01:59;26.30;66.90
71563;DHT22;59391;52.504;13.438;2022-08-19T11:04:28;26.30;69.10
71563;DHT22;59391;52.504;13.438;2022-08-19T11:06:53;26.30;66.60
71563;DHT22;59391;52.504;13.438;2022-08-19T11:09:22;26.30;69.60
71563;DHT22;59391;52.504;13.438;2022-08-19T11:11:55;26.20;68.00
71563;DHT22;59391;52.504;13.438;2022-08-19T11:14:28;26.20;65.80
71563;DHT22;59391;52.504;13.438;2022-08-19T11:17:15;26.20;68.40
71563;DHT22;59391;52.504;13.438;2022-08-19T11:19:41;26.20;66.10
71563;DHT22;59391;52.504;13.438;2022-08-19T11:22:08;26.20;69.10
71563;DHT22;59391;52.504;13.438;2022-08-19T11:24:35;26.20;69.00
71563;DHT22;59391;52.504;13.438;2022-08-19T11:27:06;26.20;67.90
71563;DHT22;59391;52.504;13.438;2022-08-19T11:29:35;26.20;67.60
71563;DHT22;59391;52.504;13.438;2022-08-19T11:32:08;26.20;68.30
71563;DHT22;59391;52.504;13.438;2022-08-19T11:34:35;26.20;67.70
71563;DHT22;59391;52.504;13.438;2022-08-19T11:37:02;26.20;68.00
71563;DHT22;59391;52.504;13.438;2022-08-19T11:39:30;26.20;67.80
71563;DHT22;59391;52.504;13.438;2022-08-19T11:41:58;26.20;67.50
71563;DHT22;59391;52.504;13.438;2022-08-19T11:44:25;26.20;68.50
71563;DHT22;59391;52.504;13.438;2022-08-19T11:47:14;26.20;68.00
71563;DHT22;59391;52.504;13.438;2022-08-19T11:50:17;26.20;66.70
71563;DHT22;59391;52.504;13.438;2022-08-19T11:52:44;26.20;65.50
71563;DHT22;59391;52.504;13.438;2022-08-19T11:55:12;26.20;67.40
71563;DHT22;59391;52.504;13.438;2022-08-19T11:57:42;26.20;66.10
71563;DHT22;59391;52.504;13.438;2022-08-19T12:00:09;26.20;67.00
71563;DHT22;59391;52.504;13.438;2022-08-19T12:02:37;26.20;66.20
71563;DHT22;59391;52.504;13.438;2022-08-19T12:05:03;26.20;68.10
71563;DHT22;59391;52.504;13.438;2022-08-19T12:07:29;26.20;66.80
71563;DHT22;59391;52.504;13.438;2022-08-19T12:10:00;26.20;67.80
71563;DHT22;59391;52.504;13.438;2022-08-19T12:12:26;26.20;65.80
71563;DHT22;59391;52.504;13.438;2022-08-19T12:14:55;26.20;65.80
71563;DHT22;59391;52.504;13.438;2022-08-19T12:17:25;26.10;66.30
71563;DHT22;59391;52.504;13.438;2022-08-19T12:19:52;26.10;66.20
71563;DHT22;59391;52.504;13.438;2022-08-19T12:22:18;26.10;66.90
71563;DHT22;59391;52.504;13.438;2022-08-19T12:24:45;26.10;67.50
71563;DHT22;59391;52.504;13.438;2022-08-19T12:27:10;26.20;67.40
71563;DHT22;59391;52.504;13.438;2022-08-19T12:29:36;26.30;66.80
71563;DHT22;59391;52.504;13.438;2022-08-19T12:32:02;26.30;65.60
71563;DHT22;59391;52.504;13.438;2022-08-19T12:34:32;26.30;67.00
71563;DHT22;59391;52.504;13.438;2022-08-19T12:37:00;26.40;67.10
71563;DHT22;59391;52.504;13.438;2022-08-19T12:39:28;26.40;66.70
71563;DHT22;59391;52.504;13.438;2022-08-19T12:41:54;26.50;66.20
71563;DHT22;59391;52.504;13.438;2022-08-19T12:44:19;26.60;66.40
71563;DHT22;59391;52.504;13.438;2022-08-19T12:46:46;26.60;65.60
71563;DHT22;59391;52.504;13.438;2022-08-19T12:49:12;26.60;64.10
71563;DHT22;59391;52.504;13.438;2022-08-19T12:51:37;26.70;64.80
71563;DHT22;59391;52.504;13.438;2022-08-19T12:54:03;26.70;65.70
71563;DHT22;59391;52.504;13.438;2022-08-19T12:56:30;26.70;65.90
71563;DHT22;59391;52.504;13.438;2022-08-19T12:58:56;26.80;64.50
71563;DHT22;59391;52.504;13.438;2022-08-19T13:01:22;26.80;63.40
71563;DHT22;59391;52.504;13.438;2022-08-19T13:03:47;26.90;64.70
71563;DHT22;59391;52.504;13.438;2022-08-19T13:06:13;26.90;63.30
71563;DHT22;59391;52.504;13.438;2022-08-19T13:08:40;26.90;64.90
71563;DHT22;59391;52.504;13.438;2022-08-19T13:11:12;27.00;67.10
71563;DHT22;59391;52.504;13.438;2022-08-19T13:13:41;27.00;64.40
71563;DHT22;59391;52.504;13.438;2022-08-19T13:16:09;27.00;63.50
71563;DHT22;59391;52.504;13.438;2022-08-19T13:18:36;27.00;64.50
71563;DHT22;59391;52.504;13.438;2022-08-19T13:21:04;27.00;64.40
71563;DHT22;59391;52.504;13.438;2022-08-19T13:23:32;27.00;64.20
71563;DHT22;59391;52.504;13.438;2022-08-19T13:26:00;27.00;64.70
71563;DHT22;59391;52.504;13.438;2022-08-19T13:28:30;27.10;62.90
71563;DHT22;59391;52.504;13.438;2022-08-19T13:31:18;27.10;64.40
71563;DHT22;59391;52.504;13.438;2022-08-19T13:34:03;27.20;64.90
71563;DHT22;59391;52.504;13.438;2022-08-19T13:36:34;27.20;67.30
71563;DHT22;59391;52.504;13.438;2022-08-19T13:39:00;27.30;63.60
71563;DHT22;59391;52.504;13.438;2022-08-19T13:41:26;27.30;65.80
71563;DHT22;59391;52.504;13.438;2022-08-19T13:43:53;27.30;63.40
71563;DHT22;59391;52.504;13.438;2022-08-19T13:46:19;27.30;63.40
71563;DHT22;59391;52.504;13.438;2022-08-19T13:48:46;27.30;63.00
71563;DHT22;59391;52.504;13.438;2022-08-19T13:51:14;27.30;63.30
71563;DHT22;59391;52.504;13.438;2022-08-19T13:53:42;27.40;62.00
71563;DHT22;59391;52.504;13.438;2022-08-19T13:56:13;27.30;61.30
71563;DHT22;59391;52.504;13.438;2022-08-19T13:58:41;27.30;63.10
71563;DHT22;59391;52.504;13.438;2022-08-19T14:01:08;27.30;62.70
71563;DHT22;59391;52.504;13.438;2022-08-19T14:03:35;27.20;62.30
71563;DHT22;59391;52.504;13.438;2022-08-19T14:06:01;27.20;64.30
71563;DHT22;59391;52.504;13.438;2022-08-19T14:08:28;27.20;62.70
71563;DHT22;59391;52.504;13.438;2022-08-19T14:10:54;27.10;64.00
71563;DHT22;59391;52.504;13.438;2022-08-19T14:13:22;27.10;63.40
71563;DHT22;59391;52.504;13.438;2022-08-19T14:15:51;27.10;63.20
71563;DHT22;59391;52.504;13.438;2022-08-19T14:18:18;27.00;64.00
71563;DHT22;59391;52.504;13.438;2022-08-19T14:20:44;27.00;63.00
71563;DHT22;59391;52.504;13.438;2022-08-19T14:23:11;27.00;63.50
71563;DHT22;59391;52.504;13.438;2022-08-19T14:25:38;27.00;62.20
71563;DHT22;59391;52.504;13.438;2022-08-19T14:28:12;27.00;63.50
71563;DHT22;59391;52.504;13.438;2022-08-19T14:34:12;27.00;63.60
71563;DHT22;59391;52.504;13.438;2022-08-19T14:39:29;26.90;62.80
71563;DHT22;59391;52.504;13.438;2022-08-19T14:46:05;27.00;63.60
71563;DHT22;59391;52.504;13.438;2022-08-19T15:03:31;27.00;64.50
71563;DHT22;59391;52.504;13.438;2022-08-19T15:09:35;27.00;63.10
71563;DHT22;59391;52.504;13.438;2022-08-19T15:16:22;26.90;65.70
71563;DHT22;59391;52.504;13.438;2022-08-19T15:19:07;26.90;65.30
71563;DHT22;59391;52.504;13.438;2022-08-19T15:22:39;26.90;64.10
71563;DHT22;59391;52.504;13.438;2022-08-19T15:28:39;26.80;65.40
71563;DHT22;59391;52.504;13.438;2022-08-19T15:35:13;26.70;63.20
71563;DHT22;59391;52.504;13.438;2022-08-19T15:37:58;26.70;65.40
71563;DHT22;59391;52.504;13.438;2022-08-19T15:44:31;26.60;63.60
71563;DHT22;59391;52.504;13.438;2022-08-19T15:51:41;26.60;64.70
71563;DHT22;59391;52.504;13.438;2022-08-19T15:54:46;26.50;64.40
71563;DHT22;59391;52.504;13.438;2022-08-19T16:16:53;26.20;64.60
71563;DHT22;59391;52.504;13.438;2022-08-19T16:19:49;26.10;64.60
71563;DHT22;59391;52.504;13.438;2022-08-19T16:23:12;26.10;66.10
71563;DHT22;59391;52.504;13.438;2022-08-19T16:26:14;26.10;65.50
71563;DHT22;59391;52.504;13.438;2022-08-19T16:29:59;26.00;65.20
71563;DHT22;59391;52.504;13.438;2022-08-19T16:32:59;26.00;64.70
71563;DHT22;59391;52.504;13.438;2022-08-19T16:35:48;26.00;66.80
71563;DHT22;59391;52.504;13.438;2022-08-19T16:38:58;26.00;67.00
71563;DHT22;59391;52.504;13.438;2022-08-19T16:41:57;25.90;65.60
71563;DHT22;59391;52.504;13.438;2022-08-19T16:45:08;25.90;65.00
71563;DHT22;59391;52.504;13.438;2022-08-19T16:48:18;25.80;65.30
71563;DHT22;59391;52.504;13.438;2022-08-19T16:55:21;25.80;65.90
71563;DHT22;59391;52.504;13.438;2022-08-19T16:58:03;25.70;65.50
71563;DHT22;59391;52.504;13.438;2022-08-19T17:10:30;25.60;65.20
71563;DHT22;59391;52.504;13.438;2022-08-19T17:16:45;25.50;66.20
71563;DHT22;59391;52.504;13.438;2022-08-19T17:19:30;25.50;66.90
71563;DHT22;59391;52.504;13.438;2022-08-19T17:22:32;25.50;65.90
71563;DHT22;59391;52.504;13.438;2022-08-19T17:25:42;25.40;66.00
71563;DHT22;59391;52.504;13.438;2022-08-19T17:29:03;25.40;66.70
71563;DHT22;59391;52.504;13.438;2022-08-19T17:32:27;25.30;67.10
71563;DHT22;59391;52.504;13.438;2022-08-19T17:39:17;25.30;67.10
71563;DHT22;59391;52.504;13.438;2022-08-19T17:46:10;25.30;67.50
71563;DHT22;59391;52.504;13.438;2022-08-19T17:58:58;25.10;67.70
71563;DHT22;59391;52.504;13.438;2022-08-19T18:02:11;25.00;67.60
71563;DHT22;59391;52.504;13.438;2022-08-19T18:04:47;25.00;66.60